sensor_id;sensor_type;location;lat;lon;timestamp;temperature;humidity
27368;DHT22;14839;48.106;11.618;2022-11-21T05:02:02;4.50;94.60
27368;DHT22;14839;48.106;11.618;2022-11-21T05:04:28;4.50;94.60
27368;DHT22;14839;48.106;11.618;2022-11-21T05:06:54;4.50;94.60
27368;DHT22;14839;48.106;11.618;2022-11-21T05:09:19;4.40;94.60
27368;DHT22;14839;48.106;11.618;2022-11-21T05:11:45;4.40;94.60
27368;DHT22;14839;48.106;11.618;2022-11-21T05:14:29;4.40;94.60
27368;DHT22;14839;48.106;11.618;2022-11-21T05:16:54;4.40;94.60
27368;DHT22;14839;48.106;11.618;2022-11-21T05:19:20;4.40;94.60
27368;DHT22;14839;48.106;11.618;2022-11-21T05:21:46;4.30;94.60
27368;DHT22;14839;48.106;11.618;2022-11-21T05:24:11;4.30;94.60
27368;DHT22;14839;48.106;11.618;2022-11-21T05:26:37;4.30;94.60
27368;DHT22;14839;48.106;11.618;2022-11-21T05:29:03;4.30;94.60
27368;DHT22;14839;48.106;11.618;2022-11-21T05:31:29;4.30;94.60
27368;DHT22;14839;48.106;11.618;2022-11-21T05:33:54;4.20;94.60
27368;DHT22;14839;48.106;11.618;2022-11-21T05:36:20;4.20;94.60
27368;DHT22;14839;48.106;11.618;2022-11-21T05:38:45;4.20;94.60
27368;DHT22;14839;48.106;11.618;2022-11-21T05:41:11;4.20;94.60
27368;DHT22;14839;48.106;11.618;2022-11-21T05:43:37;4.10;94.60
27368;DHT22;14839;48.106;11.618;2022-11-21T05:46:22;4.10;94.60
27368;DHT22;14839;48.106;11.618;2022-11-21T05:48:49;4.10;94.60
27368;DHT22;14839;48.106;11.618;2022-11-21T05:51:16;4.00;94.60
27368;DHT22;14839;48.106;11.618;2022-11-21T05:53:43;4.00;94.60
27368;DHT22;14839;48.106;11.618;2022-11-21T05:56:10;4.00;94.60
27368;DHT22;14839;48.106;11.618;2022-11-21T05:58:37;4.00;94.60
27368;DHT22;14839;48.106;11.618;2022-11-21T06:01:04;4.00;94.60
27368;DHT22;14839;48.106;11.618;2022-11-21T06:03:32;4.00;94.60
27368;DHT22;14839;48.106;11.618;2022-11-21T06:06:03;4.00;94.60
27368;DHT22;14839;48.106;11.618;2022-11-21T06:08:34;4.10;94.60
27368;DHT22;14839;48.106;11.618;2022-11-21T06:11:01;4.10;94.60
27368;DHT22;14839;48.106;11.618;2022-11-21T06:13:27;4.00;94.60
27368;DHT22;14839;48.106;11.618;2022-11-21T06:15:58;4.00;94.60
27368;DHT22;14839;48.106;11.618;2022-11-21T06:18:24;4.10;94.60
27368;DHT22;14839;48.106;11.618;2022-11-21T06:20:50;4.20;94.60
27368;DHT22;14839;48.106;11.618;2022-11-21T06:23:16;4.20;94.60
27368;DHT22;14839;48.106;11.618;2022-11-21T06:25:42;4.20;94.60
27368;DHT22;14839;48.106;11.618;2022-11-21T06:28:09;4.20;94.60
27368;DHT22;14839;48.106;11.618;2022-11-21T06:30:34;4.20;94.60
27368;DHT22;14839;48.106;11.618;2022-11-21T06:33:02;4.30;94.60
27368;DHT22;14839;48.106;11.618;2022-11-21T06:35:28;4.40;94.60
27368;DHT22;14839;48.106;11.618;2022-11-21T06:37:55;4.40;94.60
27368;DHT22;14839;48.106;11.618;2022-11-21T06:40:21;4.40;94.60
27368;DHT22;14839;48.106;11.618;2022-11-21T06:42:47;4.40;94.60
27368;DHT22;14839;48.106;11.618;2022-11-21T06:45:12;4.40;94.60
27368;DHT22;14839;48.106;11.618;2022-11-21T06:47:38;4.50;94.60
27368;DHT22;14839;48.106;11.618;2022-11-21T06:50:04;4.50;94.60
27368;DHT22;14839;48.106;11.618;2022-11-21T06:52:32;4.60;94.60
27368;DHT22;14839;48.106;11.618;2022-11-21T06:54:58;4.60;94.60
27368;DHT22;14839;48.106;11.618;2022-11-21T06:57:24;4.60;94.60
27368;DHT22;14839;48.106;11.618;2022-11-21T06:59:49;4.60;94.60
27368;DHT22;14839;48.106;11.618;2022-11-21T07:02:15;4.60;94.60
27368;DHT22;14839;48.106;11.618;2022-11-21T07:04:40;4.70;94.60
27368;DHT22;14839;48.106;11.618;2022-11-21T07:07:06;4.70;94.60
27368;DHT22;14839;48.106;11.618;2022-11-21T07:09:32;4.70;94.60
27368;DHT22;14839;48.106;11.618;2022-11-21T07:12:00;4.70;94.60
27368;DHT22;14839;48.106;11.618;2022-11-21T07:14:46;4.70;94.60
27368;DHT22;14839;48.106;11.618;2022-11-21T07:17:12;4.70;94.60
27368;DHT22;14839;48.106;11.618;2022-11-21T07:19:38;4.70;94.60
27368;DHT22;14839;48.106;11.618;2022-11-21T07:22:04;4.70;94.60
27368;DHT22;14839;48.106;11.618;2022-11-21T07:24:29;4.80;94.60
27368;DHT22;14839;48.106;11.618;2022-11-21T07:26:55;4.80;94.60
27368;DHT22;14839;48.106;11.618;2022-11-21T07:29:20;4.70;94.60
27368;DHT22;14839;48.106;11.618;2022-11-21T07:31:46;4.70;94.60
27368;DHT22;14839;48.106;11.618;2022-11-21T07:34:12;4.70;94.60
27368;DHT22;14839;48.106;11.618;2022-11-21T07:36:37;4.70;94.60
27368;DHT22;14839;48.106;11.618;2022-11-21T07:39:03;4.80;94.60
27368;DHT22;14839;48.106;11.618;2022-11-21T07:41:28;4.80;94.60
27368;DHT22;14839;48.106;11.618;2022-11-21T07:43:54;4.70;94.60
27368;DHT22;14839;48.106;11.618;2022-11-21T07:46:20;4.80;94.60
27368;DHT22;14839;48.106;11.618;2022-11-21T07:48:45;4.90;94.60
27368;DHT22;14839;48.106;11.618;2022-11-21T07:51:11;5.00;94.60
27368;DHT22;14839;48.106;11.618;2022-11-21T07:53:36;4.90;94.60
27368;DHT22;14839;48.106;11.618;2022-11-21T07:56:02;4.90;94.60
27368;DHT22;14839;48.106;11.618;2022-11-21T07:58:29;4.80;94.60
27368;DHT22;14839;48.106;11.618;2022-11-21T08:00:55;4.70;94.60
27368;DHT22;14839;48.106;11.618;2022-11-21T08:03:20;4.90;94.60
27368;DHT22;14839;48.106;11.618;2022-11-21T08:05:47;5.10;94.60
27368;DHT22;14839;48.106;11.618;2022-11-21T08:08:13;5.80;94.60
27368;DHT22;14839;48.106;11.618;2022-11-21T08:10:42;6.50;94.60
27368;DHT22;14839;48.106;11.618;2022-11-21T08:13:08;7.30;94.60
27368;DHT22;14839;48.106;11.618;2022-11-21T08:15:35;7.60;94.60
27368;DHT22;14839;48.106;11.618;2022-11-21T08:18:11;7.60;94.60
27368;DHT22;14839;48.106;11.618;2022-11-21T08:20:38;7.20;94.60
27368;DHT22;14839;48.106;11.618;2022-11-21T08:23:04;6.90;94.60
27368;DHT22;14839;48.106;11.618;2022-11-21T08:25:32;6.50;94.60
27368;DHT22;14839;48.106;11.618;2022-11-21T08:27:58;6.40;94.60
27368;DHT22;14839;48.106;11.618;2022-11-21T08:30:24;6.10;94.60
27368;DHT22;14839;48.106;11.618;2022-11-21T08:32:50;5.90;94.60
27368;DHT22;14839;48.106;11.618;2022-11-21T08:35:15;5.70;94.60
27368;DHT22;14839;48.106;11.618;2022-11-21T08:37:41;5.60;94.60
27368;DHT22;14839;48.106;11.618;2022-11-21T08:40:07;5.50;94.60
27368;DHT22;14839;48.106;11.618;2022-11-21T08:42:33;5.60;94.60
27368;DHT22;14839;48.106;11.618;2022-11-21T08:44:58;5.50;94.60
27368;DHT22;14839;48.106;11.618;2022-11-21T08:47:24;5.50;94.60
27368;DHT22;14839;48.106;11.618;2022-11-21T08:49:50;5.50;94.60
27368;DHT22;14839;48.106;11.618;2022-11-21T08:52:15;5.50;94.60
27368;DHT22;14839;48.106;11.618;2022-11-21T08:54:42;5.50;94.60
27368;DHT22;14839;48.106;11.618;2022-11-21T08:57:09;5.50;94.60
27368;DHT22;14839;48.106;11.618;2022-11-21T08:59:34;5.50;94.60
27368;DHT22;14839;48.106;11.618;2022-11-21T09:02:00;5.60;94.60
27368;DHT22;14839;48.106;11.618;2022-11-21T09:04:26;5.50;94.60
27368;DHT22;14839;48.106;11.618;2022-11-21T09:06:51;5.60;94.60
27368;DHT22;14839;48.106;11.618;2022-11-21T09:09:17;5.70;94.60
27368;DHT22;14839;48.106;11.618;2022-11-21T09:11:43;5.80;94.60
27368;DHT22;14839;48.106;11.618;2022-11-21T09:14:08;5.90;94.60
27368;DHT22;14839;48.106;11.618;2022-11-21T09:16:52;6.30;94.60
27368;DHT22;14839;48.106;11.618;2022-11-21T09:19:36;6.60;94.60
27368;DHT22;14839;48.106;11.618;2022-11-21T09:22:02;6.70;94.60
27368;DHT22;14839;48.106;11.618;2022-11-21T09:24:27;6.80;94.60
27368;DHT22;14839;48.106;11.618;2022-11-21T09:26:53;6.70;94.60
27368;DHT22;14839;48.106;11.618;2022-11-21T09:29:19;7.50;94.60
27368;DHT22;14839;48.106;11.618;2022-11-21T09:31:45;8.10;94.60
27368;DHT22;14839;48.106;11.618;2022-11-21T09:34:10;9.00;94.00
27368;DHT22;14839;48.106;11.618;2022-11-21T09:36:37;9.30;92.00
27368;DHT22;14839;48.106;11.618;2022-11-21T09:39:03;9.50;90.90
27368;DHT22;14839;48.106;11.618;2022-11-21T09:41:56;9.70;90.30
27368;DHT22;14839;48.106;11.618;2022-11-21T09:44:44;9.90;90.10
27368;DHT22;14839;48.106;11.618;2022-11-21T09:47:23;10.40;88.90
27368;DHT22;14839;48.106;11.618;2022-11-21T09:50:05;10.90;86.60
27368;DHT22;14839;48.106;11.618;2022-11-21T09:52:47;10.90;84.50
27368;DHT22;14839;48.106;11.618;2022-11-21T09:58:30;11.00;83.50
27368;DHT22;14839;48.106;11.618;2022-11-21T10:00:57;10.80;84.80
27368;DHT22;14839;48.106;11.618;2022-11-21T10:03:26;10.60;85.70
27368;DHT22;14839;48.106;11.618;2022-11-21T10:05:59;10.70;85.40
27368;DHT22;14839;48.106;11.618;2022-11-21T10:08:50;10.50;84.20
27368;DHT22;14839;48.106;11.618;2022-11-21T10:25:11;9.30;88.10
27368;DHT22;14839;48.106;11.618;2022-11-21T10:27:46;8.90;89.30
27368;DHT22;14839;48.106;11.618;2022-11-21T10:30:17;8.60;90.10
27368;DHT22;14839;48.106;11.618;2022-11-21T10:32:46;8.40;90.80
27368;DHT22;14839;48.106;11.618;2022-11-21T10:35:37;8.20;91.70
27368;DHT22;14839;48.106;11.618;2022-11-21T10:38:02;8.20;91.70
27368;DHT22;14839;48.106;11.618;2022-11-21T10:40:46;7.90;91.80
27368;DHT22;14839;48.106;11.618;2022-11-21T10:46:07;7.60;92.00
27368;DHT22;14839;48.106;11.618;2022-11-21T10:48:33;7.50;91.90
27368;DHT22;14839;48.106;11.618;2022-11-21T10:51:15;7.40;92.70
27368;DHT22;14839;48.106;11.618;2022-11-21T10:53:42;7.30;93.20
27368;DHT22;14839;48.106;11.618;2022-11-21T10:56:26;7.20;94.20
27368;DHT22;14839;48.106;11.618;2022-11-21T10:58:57;7.20;93.50
27368;DHT22;14839;48.106;11.618;2022-11-21T11:01:30;7.00;93.00
27368;DHT22;14839;48.106;11.618;2022-11-21T11:06:38;6.90;94.10
27368;DHT22;14839;48.106;11.618;2022-11-21T11:09:05;6.90;93.70
27368;DHT22;14839;48.106;11.618;2022-11-21T11:11:32;6.90;93.50
27368;DHT22;14839;48.106;11.618;2022-11-21T11:14:05;6.90;93.70
27368;DHT22;14839;48.106;11.618;2022-11-21T11:16:42;6.80;93.40
27368;DHT22;14839;48.106;11.618;2022-11-21T11:26:56;7.30;91.00
27368;DHT22;14839;48.106;11.618;2022-11-21T11:29:24;7.50;90.70
27368;DHT22;14839;48.106;11.618;2022-11-21T11:34:26;7.90;89.50
27368;DHT22;14839;48.106;11.618;2022-11-21T11:48:09;7.80;87.70
27368;DHT22;14839;48.106;11.618;2022-11-21T11:50:50;7.90;88.90
27368;DHT22;14839;48.106;11.618;2022-11-21T11:53:28;7.90;86.90
27368;DHT22;14839;48.106;11.618;2022-11-21T11:56:10;7.90;86.80
27368;DHT22;14839;48.106;11.618;2022-11-21T11:59:22;8.00;87.20
27368;DHT22;14839;48.106;11.618;2022-11-21T12:02:24;8.00;86.60
27368;DHT22;14839;48.106;11.618;2022-11-21T12:05:09;8.00;86.30
27368;DHT22;14839;48.106;11.618;2022-11-21T12:07:43;8.10;86.80
27368;DHT22;14839;48.106;11.618;2022-11-21T12:10:12;8.20;85.90
27368;DHT22;14839;48.106;11.618;2022-11-21T12:12:51;8.30;86.60
27368;DHT22;14839;48.106;11.618;2022-11-21T12:15:55;8.40;87.80
27368;DHT22;14839;48.106;11.618;2022-11-21T12:21:04;8.80;91.80
27368;DHT22;14839;48.106;11.618;2022-11-21T12:23:32;9.20;90.70
27368;DHT22;14839;48.106;11.618;2022-11-21T12:34:25;9.40;89.90
27368;DHT22;14839;48.106;11.618;2022-11-21T12:37:03;9.30;88.10
27368;DHT22;14839;48.106;11.618;2022-11-21T12:42:26;8.90;89.80
27368;DHT22;14839;48.106;11.618;2022-11-21T12:45:33;8.80;89.20
27368;DHT22;14839;48.106;11.618;2022-11-21T12:51:19;9.70;87.20
27368;DHT22;14839;48.106;11.618;2022-11-21T12:57:18;9.80;86.90
27368;DHT22;14839;48.106;11.618;2022-11-21T13:04:39;10.00;83.50
27368;DHT22;14839;48.106;11.618;2022-11-21T13:07:06;10.00;83.50
27368;DHT22;14839;48.106;11.618;2022-11-21T13:09:40;9.90;82.00
27368;DHT22;14839;48.106;11.618;2022-11-21T13:12:15;9.40;83.60
27368;DHT22;14839;48.106;11.618;2022-11-21T13:14:54;9.30;85.70
27368;DHT22;14839;48.106;11.618;2022-11-21T13:25:02;8.80;84.80
27368;DHT22;14839;48.106;11.618;2022-11-21T13:27:41;8.70;84.80
27368;DHT22;14839;48.106;11.618;2022-11-21T13:33:07;8.50;85.90
27368;DHT22;14839;48.106;11.618;2022-11-21T13:38:14;8.30;87.40
27368;DHT22;14839;48.106;11.618;2022-11-21T13:40:40;8.30;86.90
27368;DHT22;14839;48.106;11.618;2022-11-21T13:43:28;8.30;87.10
27368;DHT22;14839;48.106;11.618;2022-11-21T13:45:54;8.10;86.80
27368;DHT22;14839;48.106;11.618;2022-11-21T13:48:56;8.00;87.10
27368;DHT22;14839;48.106;11.618;2022-11-21T13:51:44;7.90;87.40
27368;DHT22;14839;48.106;11.618;2022-11-21T13:57:23;8.10;85.30
27368;DHT22;14839;48.106;11.618;2022-11-21T14:02:28;8.10;83.50
27368;DHT22;14839;48.106;11.618;2022-11-21T14:07:28;8.00;88.70
27368;DHT22;14839;48.106;11.618;2022-11-21T14:10:03;8.00;89.30
27368;DHT22;14839;48.106;11.618;2022-11-21T14:12:35;7.80;90.50
27368;DHT22;14839;48.106;11.618;2022-11-21T14:17:47;7.50;91.50
27368;DHT22;14839;48.106;11.618;2022-11-21T14:28:01;7.40;94.30
27368;DHT22;14839;48.106;11.618;2022-11-21T14:30:31;7.30;94.60
27368;DHT22;14839;48.106;11.618;2022-11-21T14:33:19;7.20;94.60
27368;DHT22;14839;48.106;11.618;2022-11-21T14:35:50;7.10;94.60
27368;DHT22;14839;48.106;11.618;2022-11-21T14:38:19;6.90;94.60
27368;DHT22;14839;48.106;11.618;2022-11-21T14:40:45;6.90;94.60
27368;DHT22;14839;48.106;11.618;2022-11-21T14:43:32;6.70;94.60
27368;DHT22;14839;48.106;11.618;2022-11-21T14:45:58;6.70;94.60
27368;DHT22;14839;48.106;11.618;2022-11-21T14:48:28;6.60;94.60
27368;DHT22;14839;48.106;11.618;2022-11-21T14:50:58;6.60;94.60
27368;DHT22;14839;48.106;11.618;2022-11-21T14:53:25;6.50;94.60
27368;DHT22;14839;48.106;11.618;2022-11-21T14:55:52;6.40;94.60
27368;DHT22;14839;48.106;11.618;2022-11-21T14:58:19;6.30;94.60
27368;DHT22;14839;48.106;11.618;2022-11-21T15:01:06;6.20;94.60
27368;DHT22;14839;48.106;11.618;2022-11-21T15:03:32;6.10;94.60
27368;DHT22;14839;48.106;11.618;2022-11-21T15:05:59;6.00;94.60
27368;DHT22;14839;48.106;11.618;2022-11-21T15:08:25;5.90;94.60
27368;DHT22;14839;48.106;11.618;2022-11-21T15:10:51;5.80;94.60
27368;DHT22;14839;48.106;11.618;2022-11-21T15:13:17;5.70;94.60
27368;DHT22;14839;48.106;11.618;2022-11-21T15:15:48;5.70;94.60
27368;DHT22;14839;48.106;11.618;2022-11-21T15:18:26;5.60;94.60
27368;DHT22;14839;48.106;11.618;2022-11-21T15:21:00;5.60;94.60
27368;DHT22;14839;48.106;11.618;2022-11-21T15:23:32;5.50;94.60
27368;DHT22;14839;48.106;11.618;2022-11-21T15:25:59;5.40;94.60
27368;DHT22;14839;48.106;11.618;2022-11-21T15:28:25;5.30;94.60
27368;DHT22;14839;48.106;11.618;2022-11-21T15:31:18;5.20;94.60
27368;DHT22;14839;48.106;11.618;2022-11-21T15:34:04;5.10;94.60
27368;DHT22;14839;48.106;11.618;2022-11-21T15:36:31;5.10;94.60
27368;DHT22;14839;48.106;11.618;2022-11-21T15:39:05;5.00;94.60
27368;DHT22;14839;48.106;11.618;2022-11-21T15:41:32;5.00;94.60
27368;DHT22;14839;48.106;11.618;2022-11-21T15:49:03;4.70;94.60
27368;DHT22;14839;48.106;11.618;2022-11-21T15:51:43;4.70;94.60
27368;DHT22;14839;48.106;11.618;2022-11-21T15:54:15;4.60;94.60
27368;DHT22;14839;48.106;11.618;2022-11-21T15:56:40;4.60;94.60
27368;DHT22;14839;48.106;11.618;2022-11-21T15:59:07;4.50;94.60
27368;DHT22;14839;48.106;11.618;2022-11-21T16:01:33;4.40;94.60
27368;DHT22;14839;48.106;11.618;2022-11-21T16:04:01;4.40;94.60
27368;DHT22;14839;48.106;11.618;2022-11-21T16:06:27;4.30;94.60
27368;DHT22;14839;48.106;11.618;2022-11-21T16:08:53;4.30;94.60
27368;DHT22;14839;48.106;11.618;2022-11-21T16:11:33;4.20;94.60
27368;DHT22;14839;48.106;11.618;2022-11-21T16:14:03;4.20;94.60
27368;DHT22;14839;48.106;11.618;2022-11-21T16:16:31;4.10;94.60
27368;DHT22;14839;48.106;11.618;2022-11-21T16:18:57;4.10;94.60
27368;DHT22;14839;48.106;11.618;2022-11-21T16:21:24;4.00;94.60
27368;DHT22;14839;48.106;11.618;2022-11-21T16:23:50;4.00;94.60
27368;DHT22;14839;48.106;11.618;2022-11-21T16:26:16;4.00;94.60
27368;DHT22;14839;48.106;11.618;2022-11-21T16:28:41;4.00;94.60
27368;DHT22;14839;48.106;11.618;2022-11-21T16:31:17;3.90;94.60
27368;DHT22;14839;48.106;11.618;2022-11-21T16:33:43;3.90;94.60
27368;DHT22;14839;48.106;11.618;2022-11-21T16:36:09;3.80;94.60
27368;DHT22;14839;48.106;11.618;2022-11-21T16:38:34;3.80;94.60
27368;DHT22;14839;48.106;11.618;2022-11-21T16:41:01;3.80;94.60
27368;DHT22;14839;48.106;11.618;2022-11-21T16:43:30;3.80;94.60
27368;DHT22;14839;48.106;11.618;2022-11-21T16:46:06;3.80;94.60
27368;DHT22;14839;48.106;11.618;2022-11-21T16:48:31;3.70;94.60
27368;DHT22;14839;48.106;11.618;2022-11-21T16:51:18;3.70;94.60
27368;DHT22;14839;48.106;11.618;2022-11-21T16:53:46;3.60;94.60
27368;DHT22;14839;48.106;11.618;2022-11-21T16:56:12;3.60;94.60
27368;DHT22;14839;48.106;11.618;2022-11-21T16:58:39;3.60;94.60
27368;DHT22;14839;48.106;11.618;2022-11-21T17:01:12;3.60;94.60
27368;DHT22;14839;48.106;11.618;2022-11-21T17:03:40;3.60;94.60
27368;DHT22;14839;48.106;11.618;2022-11-21T17:06:06;3.50;94.60
27368;DHT22;14839;48.106;11.618;2022-11-21T17:08:33;3.50;94.60
27368;DHT22;14839;48.106;11.618;2022-11-21T17:11:10;3.50;94.60
27368;DHT22;14839;48.106;11.618;2022-11-21T17:13:38;3.40;94.60
27368;DHT22;14839;48.106;11.618;2022-11-21T17:16:06;3.40;94.60
27368;DHT22;14839;48.106;11.618;2022-11-21T17:18:32;3.40;94.60
27368;DHT22;14839;48.106;11.618;2022-11-21T17:21:01;3.30;94.60
27368;DHT22;14839;48.106;11.618;2022-11-21T17:23:30;3.30;94.60
27368;DHT22;14839;48.106;11.618;2022-11-21T17:26:12;3.30;94.60
27368;DHT22;14839;48.106;11.618;2022-11-21T17:28:38;3.20;94.60
27368;DHT22;14839;48.106;11.618;2022-11-21T17:31:09;3.20;94.60
27368;DHT22;14839;48.106;11.618;2022-11-21T17:33:35;3.20;94.60
27368;DHT22;14839;48.106;11.618;2022-11-21T17:36:25;3.20;94.60
27368;DHT22;14839;48.106;11.618;2022-11-21T17:38:52;3.20;94.60
27368;DHT22;14839;48.106;11.618;2022-11-21T17:41:19;3.10;94.60
27368;DHT22;14839;48.106;11.618;2022-11-21T17:43:45;3.10;94.60
27368;DHT22;14839;48.106;11.618;2022-11-21T17:46:18;3.10;94.60
27368;DHT22;14839;48.106;11.618;2022-11-21T17:48:45;3.10;94.60
27368;DHT22;14839;48.106;11.618;2022-11-21T17:51:14;3.10;94.60
27368;DHT22;14839;48.106;11.618;2022-11-21T17:53:42;3.10;94.60
27368;DHT22;14839;48.106;11.618;2022-11-21T17:56:14;3.10;94.60
27368;DHT22;14839;48.106;11.618;2022-11-21T17:58:40;3.10;94.60
27368;DHT22;14839;48.106;11.618;2022-11-21T18:01:07;3.10;94.60
27368;DHT22;14839;48.106;11.618;2022-11-21T18:03:34;3.10;94.60
27368;DHT22;14839;48.106;11.618;2022-11-21T18:06:04;3.10;94.60
27368;DHT22;14839;48.106;11.618;2022-11-21T18:08:34;3.10;94.60
27368;DHT22;14839;48.106;11.618;2022-11-21T18:10:59;3.10;94.60
27368;DHT22;14839;48.106;11.618;2022-11-21T18:13:27;3.10;94.60
27368;DHT22;14839;48.106;11.618;2022-11-21T18:15:52;3.00;94.60
27368;DHT22;14839;48.106;11.618;2022-11-21T18:18:18;3.00;94.60
27368;DHT22;14839;48.106;11.618;2022-11-21T18:20:44;2.90;94.60
27368;DHT22;14839;48.106;11.618;2022-11-21T18:23:10;2.90;94.60
27368;DHT22;14839;48.106;11.618;2022-11-21T18:25:36;2.90;94.60
27368;DHT22;14839;48.106;11.618;2022-11-21T18:28:02;2.90;94.60
27368;DHT22;14839;48.106;11.618;2022-11-21T18:30:30;2.80;94.60
27368;DHT22;14839;48.106;11.618;2022-11-21T18:32:55;2.90;94.60
27368;DHT22;14839;48.106;11.618;2022-11-21T18:35:21;2.90;94.60
27368;DHT22;14839;48.106;11.618;2022-11-21T18:37:47;2.90;94.60
27368;DHT22;14839;48.106;11.618;2022-11-21T18:40:13;2.80;94.60
27368;DHT22;14839;48.106;11.618;2022-11-21T18:42:38;2.70;94.60
27368;DHT22;14839;48.106;11.618;2022-11-21T18:45:05;2.70;94.60
27368;DHT22;14839;48.106;11.618;2022-11-21T18:47:30;2.60;94.60
27368;DHT22;14839;48.106;11.618;2022-11-21T18:49:56;2.60;94.60
27368;DHT22;14839;48.106;11.618;2022-11-21T18:52:22;2.50;94.60
27368;DHT22;14839;48.106;11.618;2022-11-21T18:54:47;2.50;94.60
27368;DHT22;14839;48.106;11.618;2022-11-21T18:57:13;2.50;94.60
27368;DHT22;14839;48.106;11.618;2022-11-21T18:59:39;2.50;94.60
27368;DHT22;14839;48.106;11.618;2022-11-21T19:02:04;2.50;94.60
27368;DHT22;14839;48.106;11.618;2022-11-21T19:04:30;2.40;94.60
27368;DHT22;14839;48.106;11.618;2022-11-21T19:06:56;2.40;94.60
27368;DHT22;14839;48.106;11.618;2022-11-21T19:09:21;2.30;94.60
27368;DHT22;14839;48.106;11.618;2022-11-21T19:11:47;2.40;94.60
27368;DHT22;14839;48.106;11.618;2022-11-21T19:14:12;2.40;94.60
27368;DHT22;14839;48.106;11.618;2022-11-21T19:16:38;2.30;94.60
27368;DHT22;14839;48.106;11.618;2022-11-21T19:19:08;2.30;94.60
27368;DHT22;14839;48.106;11.618;2022-11-21T19:21:36;2.20;94.60
27368;DHT22;14839;48.106;11.618;2022-11-21T19:24:02;2.20;94.60
27368;DHT22;14839;48.106;11.618;2022-11-21T19:26:30;2.20;94.60
27368;DHT22;14839;48.106;11.618;2022-11-21T19:28:57;2.20;94.60
27368;DHT22;14839;48.106;11.618;2022-11-21T19:31:23;2.20;94.60
27368;DHT22;14839;48.106;11.618;2022-11-21T19:33:49;2.10;94.60
27368;DHT22;14839;48.106;11.618;2022-11-21T19:36:19;2.10;94.60
27368;DHT22;14839;48.106;11.618;2022-11-21T19:38:45;2.00;94.60
27368;DHT22;14839;48.106;11.618;2022-11-21T19:41:14;2.00;94.60
27368;DHT22;14839;48.106;11.618;2022-11-21T19:43:43;2.00;94.60
27368;DHT22;14839;48.106;11.618;2022-11-21T19:46:14;2.00;94.60
27368;DHT22;14839;48.106;11.618;2022-11-21T19:48:40;2.00;94.60
27368;DHT22;14839;48.106;11.618;2022-11-21T19:51:06;2.00;94.60
27368;DHT22;14839;48.106;11.618;2022-11-21T19:53:35;2.10;94.60
27368;DHT22;14839;48.106;11.618;2022-11-21T19:56:14;2.10;94.60
27368;DHT22;14839;48.106;11.618;2022-11-21T19:58:41;2.10;94.60
27368;DHT22;14839;48.106;11.618;2022-11-21T20:01:17;2.20;94.60
27368;DHT22;14839;48.106;11.618;2022-11-21T20:03:45;2.20;94.60
27368;DHT22;14839;48.106;11.618;2022-11-21T20:08:59;2.20;94.60
27368;DHT22;14839;48.106;11.618;2022-11-21T20:11:26;2.20;94.60
27368;DHT22;14839;48.106;11.618;2022-11-21T20:13:52;2.20;94.60
27368;DHT22;14839;48.106;11.618;2022-11-21T20:18:48;2.30;94.60
27368;DHT22;14839;48.106;11.618;2022-11-21T20:21:14;2.40;94.60
27368;DHT22;14839;48.106;11.618;2022-11-21T20:23:40;2.30;94.60
27368;DHT22;14839;48.106;11.618;2022-11-21T20:26:07;2.40;94.60
27368;DHT22;14839;48.106;11.618;2022-11-21T20:28:34;2.30;94.60
27368;DHT22;14839;48.106;11.618;2022-11-21T20:33:58;2.30;94.60
27368;DHT22;14839;48.106;11.618;2022-11-21T20:36:23;2.20;94.60
27368;DHT22;14839;48.106;11.618;2022-11-21T20:38:57;2.30;94.60
27368;DHT22;14839;48.106;11.618;2022-11-21T20:41:25;2.30;94.60
27368;DHT22;14839;48.106;11.618;2022-11-21T20:43:55;2.30;94.60
27368;DHT22;14839;48.106;11.618;2022-11-21T20:46:21;2.20;94.60
27368;DHT22;14839;48.106;11.618;2022-11-21T20:48:48;2.10;94.60
27368;DHT22;14839;48.106;11.618;2022-11-21T20:51:14;2.00;94.60
27368;DHT22;14839;48.106;11.618;2022-11-21T20:53:39;2.10;94.60
27368;DHT22;14839;48.106;11.618;2022-11-21T20:56:07;2.00;94.60
27368;DHT22;14839;48.106;11.618;2022-11-21T20:58:35;2.00;94.60
27368;DHT22;14839;48.106;11.618;2022-11-21T21:01:01;2.00;94.60
27368;DHT22;14839;48.106;11.618;2022-11-21T21:03:27;1.90;94.60
27368;DHT22;14839;48.106;11.618;2022-11-21T21:05:58;2.00;94.60
27368;DHT22;14839;48.106;11.618;2022-11-21T21:08:24;2.00;94.60
27368;DHT22;14839;48.106;11.618;2022-11-21T21:10:51;2.00;94.60
27368;DHT22;14839;48.106;11.618;2022-11-21T21:13:17;2.00;94.60
27368;DHT22;14839;48.106;11.618;2022-11-21T21:15:42;2.10;94.60
27368;DHT22;14839;48.106;11.618;2022-11-21T21:18:09;2.10;94.60
27368;DHT22;14839;48.106;11.618;2022-11-21T21:20:34;2.10;94.60
27368;DHT22;14839;48.106;11.618;2022-11-21T21:23:00;2.20;94.60
27368;DHT22;14839;48.106;11.618;2022-11-21T21:25:26;2.20;94.60
27368;DHT22;14839;48.106;11.618;2022-11-21T21:27:52;2.20;94.60
27368;DHT22;14839;48.106;11.618;2022-11-21T21:30:18;2.30;94.60
27368;DHT22;14839;48.106;11.618;2022-11-21T21:32:44;2.30;94.60
27368;DHT22;14839;48.106;11.618;2022-11-21T21:35:10;2.40;94.60
27368;DHT22;14839;48.106;11.618;2022-11-21T21:37:36;2.50;94.60
27368;DHT22;14839;48.106;11.618;2022-11-21T21:40:02;2.50;94.60
27368;DHT22;14839;48.106;11.618;2022-11-21T21:42:27;2.50;94.60
27368;DHT22;14839;48.106;11.618;2022-11-21T21:44:53;2.60;94.60
27368;DHT22;14839;48.106;11.618;2022-11-21T21:47:18;2.60;94.60
27368;DHT22;14839;48.106;11.618;2022-11-21T21:49:49;2.50;94.60
27368;DHT22;14839;48.106;11.618;2022-11-21T21:52:18;2.60;94.60
27368;DHT22;14839;48.106;11.618;2022-11-21T21:54:43;2.60;94.60
27368;DHT22;14839;48.106;11.618;2022-11-21T21:57:09;2.70;94.60
27368;DHT22;14839;48.106;11.618;2022-11-21T21:59:35;2.70;94.60
27368;DHT22;14839;48.106;11.618;2022-11-21T22:02:00;2.70;94.60
27368;DHT22;14839;48.106;11.618;2022-11-21T22:04:26;2.60;94.60
27368;DHT22;14839;48.106;11.618;2022-11-21T22:06:52;2.70;94.60
27368;DHT22;14839;48.106;11.618;2022-11-21T22:09:17;2.70;94.60
27368;DHT22;14839;48.106;11.618;2022-11-21T22:11:43;2.70;94.60
27368;DHT22;14839;48.106;11.618;2022-11-21T22:14:14;2.70;94.60
27368;DHT22;14839;48.106;11.618;2022-11-21T22:16:40;2.70;94.60
27368;DHT22;14839;48.106;11.618;2022-11-21T22:19:07;2.70;94.60
27368;DHT22;14839;48.106;11.618;2022-11-21T22:21:34;2.70;94.60
27368;DHT22;14839;48.106;11.618;2022-11-21T22:24:02;2.70;94.60
27368;DHT22;14839;48.106;11.618;2022-11-21T22:26:29;2.70;94.60
27368;DHT22;14839;48.106;11.618;2022-11-21T22:28:54;2.70;94.60
